sensor_id;sensor_type;location;lat;lon;timestamp;pressure;altitude;pressure_sealevel;temperature
73265;BMP280;61493;51.008;14.088;2023-12-04T00:01:45;98289.13;;;-6.32
73265;BMP280;61493;51.008;14.088;2023-12-04T00:04:10;98280.94;;;-6.34
73265;BMP280;61493;51.008;14.088;2023-12-04T00:06:35;98291.06;;;-6.29
73265;BMP280;61493;51.008;14.088;2023-12-04T00:09:01;98291.84;;;-6.37
73265;BMP280;61493;51.008;14.088;2023-12-04T00:11:26;98283.41;;;-6.46
73265;BMP280;61493;51.008;14.088;2023-12-04T00:13:51;98288.56;;;-6.46
73265;BMP280;61493;51.008;14.088;2023-12-04T00:16:17;98287.38;;;-6.58
73265;BMP280;61493;51.008;14.088;2023-12-04T00:18:43;98271.91;;;-6.66
73265;BMP280;61493;51.008;14.088;2023-12-04T00:21:08;98276.47;;;-6.72
73265;BMP280;61493;51.008;14.088;2023-12-04T00:23:33;98278.75;;;-6.70
73265;BMP280;61493;51.008;14.088;2023-12-04T00:25:59;98282.53;;;-6.68
73265;BMP280;61493;51.008;14.088;2023-12-04T00:28:24;98278.13;;;-6.76
73265;BMP280;61493;51.008;14.088;2023-12-04T00:30:49;98276.97;;;-6.87
73265;BMP280;61493;51.008;14.088;2023-12-04T00:33:14;98276.66;;;-6.95
73265;BMP280;61493;51.008;14.088;2023-12-04T00:35:40;98285.59;;;-6.83
73265;BMP280;61493;51.008;14.088;2023-12-04T00:38:05;98291.50;;;-6.83
73265;BMP280;61493;51.008;14.088;2023-12-04T00:40:30;98280.84;;;-6.55
73265;BMP280;61493;51.008;14.088;2023-12-04T00:42:55;98277.88;;;-6.36
73265;BMP280;61493;51.008;14.088;2023-12-04T00:45:21;98271.06;;;-6.32
73265;BMP280;61493;51.008;14.088;2023-12-04T00:47:46;98267.88;;;-6.38
73265;BMP280;61493;51.008;14.088;2023-12-04T00:50:11;98270.53;;;-6.17
73265;BMP280;61493;51.008;14.088;2023-12-04T00:52:37;98276.44;;;-6.16
73265;BMP280;61493;51.008;14.088;2023-12-04T00:55:02;98280.59;;;-6.24
73265;BMP280;61493;51.008;14.088;2023-12-04T00:57:27;98276.34;;;-6.28
73265;BMP280;61493;51.008;14.088;2023-12-04T00:59:52;98276.34;;;-6.28
73265;BMP280;61493;51.008;14.088;2023-12-04T01:02:18;98278.19;;;-6.29
73265;BMP280;61493;51.008;14.088;2023-12-04T01:04:43;98270.25;;;-6.24
73265;BMP280;61493;51.008;14.088;2023-12-04T01:07:08;98270.94;;;-6.06
73265;BMP280;61493;51.008;14.088;2023-12-04T01:09:37;98257.09;;;-5.93
73265;BMP280;61493;51.008;14.088;2023-12-04T01:12:02;98261.59;;;-5.90
73265;BMP280;61493;51.008;14.088;2023-12-04T01:14:28;98257.00;;;-5.84
73265;BMP280;61493;51.008;14.088;2023-12-04T01:16:53;98247.63;;;-5.68
73265;BMP280;61493;51.008;14.088;2023-12-04T01:19:18;98253.44;;;-5.71
73265;BMP280;61493;51.008;14.088;2023-12-04T01:21:44;98258.91;;;-5.72
73265;BMP280;61493;51.008;14.088;2023-12-04T01:24:09;98255.91;;;-5.74
73265;BMP280;61493;51.008;14.088;2023-12-04T01:26:34;98254.72;;;-5.77
73265;BMP280;61493;51.008;14.088;2023-12-04T01:28:59;98260.44;;;-5.71
73265;BMP280;61493;51.008;14.088;2023-12-04T01:31:25;98259.00;;;-5.60
73265;BMP280;61493;51.008;14.088;2023-12-04T01:33:50;98262.19;;;-5.63
73265;BMP280;61493;51.008;14.088;2023-12-04T01:36:15;98266.75;;;-5.60
73265;BMP280;61493;51.008;14.088;2023-12-04T01:38:40;98272.59;;;-5.51
73265;BMP280;61493;51.008;14.088;2023-12-04T01:41:06;98285.63;;;-5.47
73265;BMP280;61493;51.008;14.088;2023-12-04T01:43:31;98280.78;;;-5.49
73265;BMP280;61493;51.008;14.088;2023-12-04T01:45:57;98278.94;;;-5.48
73265;BMP280;61493;51.008;14.088;2023-12-04T01:48:24;98274.09;;;-5.50
73265;BMP280;61493;51.008;14.088;2023-12-04T01:50:51;98280.47;;;-5.47
73265;BMP280;61493;51.008;14.088;2023-12-04T01:53:16;98279.69;;;-5.48
73265;BMP280;61493;51.008;14.088;2023-12-04T01:55:42;98273.03;;;-5.49
73265;BMP280;61493;51.008;14.088;2023-12-04T01:58:07;98273.63;;;-5.43
73265;BMP280;61493;51.008;14.088;2023-12-04T02:00:33;98279.84;;;-5.44
73265;BMP280;61493;51.008;14.088;2023-12-04T02:02:59;98273.16;;;-5.45
73265;BMP280;61493;51.008;14.088;2023-12-04T02:05:26;98270.13;;;-5.47
73265;BMP280;61493;51.008;14.088;2023-12-04T02:07:52;98273.78;;;-5.48
73265;BMP280;61493;51.008;14.088;2023-12-04T02:10:17;98279.88;;;-5.53
73265;BMP280;61493;51.008;14.088;2023-12-04T02:12:43;98273.66;;;-5.52
73265;BMP280;61493;51.008;14.088;2023-12-04T02:15:08;98273.78;;;-5.48
73265;BMP280;61493;51.008;14.088;2023-12-04T02:17:34;98270.75;;;-5.50
73265;BMP280;61493;51.008;14.088;2023-12-04T02:19:59;98264.09;;;-5.51
73265;BMP280;61493;51.008;14.088;2023-12-04T02:22:24;98259.75;;;-5.59
73265;BMP280;61493;51.008;14.088;2023-12-04T02:24:50;98272.13;;;-5.53
73265;BMP280;61493;51.008;14.088;2023-12-04T02:27:23;98254.16;;;-5.61
73265;BMP280;61493;51.008;14.088;2023-12-04T02:29:52;98256.72;;;-5.61
73265;BMP280;61493;51.008;14.088;2023-12-04T02:32:19;98260.38;;;-5.62
73265;BMP280;61493;51.008;14.088;2023-12-04T02:34:46;98244.38;;;-5.56
73265;BMP280;61493;51.008;14.088;2023-12-04T02:37:13;98236.00;;;-5.53
73265;BMP280;61493;51.008;14.088;2023-12-04T02:39:39;98237.16;;;-5.62
73265;BMP280;61493;51.008;14.088;2023-12-04T02:42:05;98243.69;;;-5.65
73265;BMP280;61493;51.008;14.088;2023-12-04T02:44:31;98234.75;;;-5.68
73265;BMP280;61493;51.008;14.088;2023-12-04T02:46:56;98237.50;;;-5.73
73265;BMP280;61493;51.008;14.088;2023-12-04T02:49:21;98234.28;;;-5.70
73265;BMP280;61493;51.008;14.088;2023-12-04T02:51:46;98226.53;;;-5.70
73265;BMP280;61493;51.008;14.088;2023-12-04T02:54:12;98210.06;;;-5.77
73265;BMP280;61493;51.008;14.088;2023-12-04T02:56:37;98226.63;;;-5.78
73265;BMP280;61493;51.008;14.088;2023-12-04T02:59:02;98215.41;;;-5.82
73265;BMP280;61493;51.008;14.088;2023-12-04T03:01:27;98211.25;;;-5.75
73265;BMP280;61493;51.008;14.088;2023-12-04T03:03:53;98211.69;;;-5.73
73265;BMP280;61493;51.008;14.088;2023-12-04T03:06:18;98207.41;;;-5.69
73265;BMP280;61493;51.008;14.088;2023-12-04T03:08:43;98211.59;;;-5.76
73265;BMP280;61493;51.008;14.088;2023-12-04T03:11:08;98210.06;;;-5.77
73265;BMP280;61493;51.008;14.088;2023-12-04T03:13:34;98201.72;;;-5.83
73265;BMP280;61493;51.008;14.088;2023-12-04T03:15:59;98211.88;;;-5.78
73265;BMP280;61493;51.008;14.088;2023-12-04T03:18:25;98196.25;;;-5.81
73265;BMP280;61493;51.008;14.088;2023-12-04T03:20:51;98196.53;;;-5.74
73265;BMP280;61493;51.008;14.088;2023-12-04T03:23:16;98189.25;;;-5.81
73265;BMP280;61493;51.008;14.088;2023-12-04T03:25:41;98188.19;;;-5.80
73265;BMP280;61493;51.008;14.088;2023-12-04T03:28:07;98185.78;;;-5.76
73265;BMP280;61493;51.008;14.088;2023-12-04T03:30:32;98190.75;;;-5.80
73265;BMP280;61493;51.008;14.088;2023-12-04T03:32:57;98185.59;;;-5.80
73265;BMP280;61493;51.008;14.088;2023-12-04T03:35:23;98183.75;;;-5.71
73265;BMP280;61493;51.008;14.088;2023-12-04T03:37:48;98180.91;;;-5.78
73265;BMP280;61493;51.008;14.088;2023-12-04T03:40:15;98180.91;;;-5.78
73265;BMP280;61493;51.008;14.088;2023-12-04T03:42:40;98188.78;;;-5.74
73265;BMP280;61493;51.008;14.088;2023-12-04T03:45:06;98184.25;;;-5.77
73265;BMP280;61493;51.008;14.088;2023-12-04T03:47:31;98183.50;;;-5.78
73265;BMP280;61493;51.008;14.088;2023-12-04T03:49:57;98178.34;;;-5.78
73265;BMP280;61493;51.008;14.088;2023-12-04T03:52:22;98168.75;;;-5.77
73265;BMP280;61493;51.008;14.088;2023-12-04T03:54:47;98177.69;;;-5.75
73265;BMP280;61493;51.008;14.088;2023-12-04T03:57:12;98167.38;;;-5.75
73265;BMP280;61493;51.008;14.088;2023-12-04T03:59:38;98166.19;;;-5.77
73265;BMP280;61493;51.008;14.088;2023-12-04T04:02:03;98170.88;;;-5.79
73265;BMP280;61493;51.008;14.088;2023-12-04T04:04:28;98163.59;;;-5.77
73265;BMP280;61493;51.008;14.088;2023-12-04T04:06:53;98160.31;;;-5.86
73265;BMP280;61493;51.008;14.088;2023-12-04T04:09:19;98153.66;;;-5.87
73265;BMP280;61493;51.008;14.088;2023-12-04T04:11:45;98161.25;;;-5.91
73265;BMP280;61493;51.008;14.088;2023-12-04T04:14:10;98167.66;;;-5.97
73265;BMP280;61493;51.008;14.088;2023-12-04T04:16:35;98157.53;;;-6.02
73265;BMP280;61493;51.008;14.088;2023-12-04T04:19:01;98171.97;;;-6.01
73265;BMP280;61493;51.008;14.088;2023-12-04T04:21:26;98176.56;;;-6.07
73265;BMP280;61493;51.008;14.088;2023-12-04T04:23:51;98168.94;;;-6.03
73265;BMP280;61493;51.008;14.088;2023-12-04T04:26:18;98166.38;;;-6.03
73265;BMP280;61493;51.008;14.088;2023-12-04T04:28:43;98152.88;;;-6.09
73265;BMP280;61493;51.008;14.088;2023-12-04T04:31:09;98155.75;;;-6.11
73265;BMP280;61493;51.008;14.088;2023-12-04T04:33:34;98162.44;;;-6.10
73265;BMP280;61493;51.008;14.088;2023-12-04T04:35:59;98161.38;;;-6.08
73265;BMP280;61493;51.008;14.088;2023-12-04T04:38:24;98148.66;;;-6.14
73265;BMP280;61493;51.008;14.088;2023-12-04T04:40:50;98151.47;;;-6.19
73265;BMP280;61493;51.008;14.088;2023-12-04T04:43:15;98154.03;;;-6.19
73265;BMP280;61493;51.008;14.088;2023-12-04T04:45:40;98162.00;;;-6.12
73265;BMP280;61493;51.008;14.088;2023-12-04T04:48:06;98156.03;;;-6.03
73265;BMP280;61493;51.008;14.088;2023-12-04T04:50:31;98145.97;;;-5.96
73265;BMP280;61493;51.008;14.088;2023-12-04T04:52:56;98146.56;;;-5.91
73265;BMP280;61493;51.008;14.088;2023-12-04T04:55:21;98139.56;;;-5.90
73265;BMP280;61493;51.008;14.088;2023-12-04T04:57:47;98141.41;;;-5.91
73265;BMP280;61493;51.008;14.088;2023-12-04T05:00:12;98139.03;;;-5.83
73265;BMP280;61493;51.008;14.088;2023-12-04T05:02:37;98121.41;;;-5.81
73265;BMP280;61493;51.008;14.088;2023-12-04T05:05:03;98114.25;;;-5.76
73265;BMP280;61493;51.008;14.088;2023-12-04T05:10:01;98115.06;;;-5.84
73265;BMP280;61493;51.008;14.088;2023-12-04T05:12:27;98124.75;;;-5.81
73265;BMP280;61493;51.008;14.088;2023-12-04T05:14:52;98130.34;;;-5.79
73265;BMP280;61493;51.008;14.088;2023-12-04T05:17:17;98110.56;;;-5.75
73265;BMP280;61493;51.008;14.088;2023-12-04T05:19:42;98123.47;;;-5.75
73265;BMP280;61493;51.008;14.088;2023-12-04T05:22:08;98118.66;;;-5.76
73265;BMP280;61493;51.008;14.088;2023-12-04T05:24:33;98126.22;;;-5.80
73265;BMP280;61493;51.008;14.088;2023-12-04T05:26:58;98122.09;;;-5.72
73265;BMP280;61493;51.008;14.088;2023-12-04T05:29:23;98117.69;;;-5.72
73265;BMP280;61493;51.008;14.088;2023-12-04T05:31:49;98134.75;;;-5.79
73265;BMP280;61493;51.008;14.088;2023-12-04T05:34:14;98117.75;;;-5.80
73265;BMP280;61493;51.008;14.088;2023-12-04T05:36:39;98123.53;;;-5.83
73265;BMP280;61493;51.008;14.088;2023-12-04T05:39:04;98133.41;;;-5.77
73265;BMP280;61493;51.008;14.088;2023-12-04T05:41:30;98134.25;;;-5.73
73265;BMP280;61493;51.008;14.088;2023-12-04T05:43:55;98131.41;;;-5.80
73265;BMP280;61493;51.008;14.088;2023-12-04T05:46:21;98128.81;;;-5.80
73265;BMP280;61493;51.008;14.088;2023-12-04T05:48:46;98128.22;;;-5.77
73265;BMP280;61493;51.008;14.088;2023-12-04T05:51:11;98117.75;;;-5.80
73265;BMP280;61493;51.008;14.088;2023-12-04T05:53:36;98128.53;;;-5.78
73265;BMP280;61493;51.008;14.088;2023-12-04T05:56:02;98124.81;;;-5.90
73265;BMP280;61493;51.008;14.088;2023-12-04T05:58:27;98119.22;;;-5.92
73265;BMP280;61493;51.008;14.088;2023-12-04T06:00:53;98103.91;;;-5.97
73265;BMP280;61493;51.008;14.088;2023-12-04T06:03:18;98097.34;;;-5.94
73265;BMP280;61493;51.008;14.088;2023-12-04T06:05:43;98096.50;;;-5.98
73265;BMP280;61493;51.008;14.088;2023-12-04T06:08:08;98092.84;;;-5.97
73265;BMP280;61493;51.008;14.088;2023-12-04T06:10:34;98088.31;;;-6.00
73265;BMP280;61493;51.008;14.088;2023-12-04T06:13:00;98091.22;;;-6.02
73265;BMP280;61493;51.008;14.088;2023-12-04T06:15:25;98082.94;;;-6.07
73265;BMP280;61493;51.008;14.088;2023-12-04T06:17:51;98082.09;;;-5.99
73265;BMP280;61493;51.008;14.088;2023-12-04T06:20:16;98071.00;;;-6.00
73265;BMP280;61493;51.008;14.088;2023-12-04T06:22:41;98086.00;;;-5.93
73265;BMP280;61493;51.008;14.088;2023-12-04T06:25:07;98076.31;;;-5.96
73265;BMP280;61493;51.008;14.088;2023-12-04T06:27:33;98071.06;;;-5.87
73265;BMP280;61493;51.008;14.088;2023-12-04T06:29:59;98078.81;;;-5.87
73265;BMP280;61493;51.008;14.088;2023-12-04T06:32:24;98054.94;;;-5.84
73265;BMP280;61493;51.008;14.088;2023-12-04T06:34:50;98062.25;;;-5.86
73265;BMP280;61493;51.008;14.088;2023-12-04T06:37:15;98071.63;;;-5.82
73265;BMP280;61493;51.008;14.088;2023-12-04T06:39:41;98084.09;;;-5.84
73265;BMP280;61493;51.008;14.088;2023-12-04T06:42:08;98060.09;;;-5.84
73265;BMP280;61493;51.008;14.088;2023-12-04T06:44:33;98077.44;;;-5.85
73265;BMP280;61493;51.008;14.088;2023-12-04T06:47:03;98068.28;;;-5.82
73265;BMP280;61493;51.008;14.088;2023-12-04T06:49:33;98102.25;;;-5.80
73265;BMP280;61493;51.008;14.088;2023-12-04T06:52:02;98063.13;;;-5.82
73265;BMP280;61493;51.008;14.088;2023-12-04T06:54:27;98085.09;;;-5.76
73265;BMP280;61493;51.008;14.088;2023-12-04T06:56:53;98072.19;;;-5.76
73265;BMP280;61493;51.008;14.088;2023-12-04T06:59:18;98069.03;;;-5.82
73265;BMP280;61493;51.008;14.088;2023-12-04T07:01:44;98071.84;;;-5.75
73265;BMP280;61493;51.008;14.088;2023-12-04T07:04:09;98068.88;;;-5.77
73265;BMP280;61493;51.008;14.088;2023-12-04T07:06:43;98060.78;;;-5.75
73265;BMP280;61493;51.008;14.088;2023-12-04T07:09:09;98089.94;;;-5.75
73265;BMP280;61493;51.008;14.088;2023-12-04T07:11:34;98060.03;;;-5.76
73265;BMP280;61493;51.008;14.088;2023-12-04T07:13:59;98053.78;;;-5.75
73265;BMP280;61493;51.008;14.088;2023-12-04T07:16:24;98066.50;;;-5.70
73265;BMP280;61493;51.008;14.088;2023-12-04T07:18:50;98059.19;;;-5.68
73265;BMP280;61493;51.008;14.088;2023-12-04T07:21:15;98050.19;;;-5.61
73265;BMP280;61493;51.008;14.088;2023-12-04T07:23:41;98058.78;;;-5.57
73265;BMP280;61493;51.008;14.088;2023-12-04T07:26:06;98065.16;;;-5.42
73265;BMP280;61493;51.008;14.088;2023-12-04T07:28:32;98060.84;;;-5.38
73265;BMP280;61493;51.008;14.088;2023-12-04T07:30:57;98072.25;;;-5.39
73265;BMP280;61493;51.008;14.088;2023-12-04T07:33:23;98065.25;;;-5.39
73265;BMP280;61493;51.008;14.088;2023-12-04T07:35:48;98066.44;;;-5.36
73265;BMP280;61493;51.008;14.088;2023-12-04T07:38:14;98070.22;;;-5.34
73265;BMP280;61493;51.008;14.088;2023-12-04T07:40:39;98066.50;;;-5.24
73265;BMP280;61493;51.008;14.088;2023-12-04T07:43:05;98056.56;;;-5.22
73265;BMP280;61493;51.008;14.088;2023-12-04T07:45:30;98059.88;;;-5.21
73265;BMP280;61493;51.008;14.088;2023-12-04T07:47:55;98071.41;;;-5.19
73265;BMP280;61493;51.008;14.088;2023-12-04T07:50:20;98062.81;;;-5.11
73265;BMP280;61493;51.008;14.088;2023-12-04T07:52:46;98071.00;;;-5.09
73265;BMP280;61493;51.008;14.088;2023-12-04T07:55:11;98073.03;;;-5.02
73265;BMP280;61493;51.008;14.088;2023-12-04T07:57:37;98076.38;;;-4.89
73265;BMP280;61493;51.008;14.088;2023-12-04T08:00:02;98062.91;;;-4.70
73265;BMP280;61493;51.008;14.088;2023-12-04T08:02:28;98070.19;;;-4.60
73265;BMP280;61493;51.008;14.088;2023-12-04T08:04:53;98052.69;;;-4.38
73265;BMP280;61493;51.008;14.088;2023-12-04T08:07:18;98052.06;;;-4.20
73265;BMP280;61493;51.008;14.088;2023-12-04T08:09:44;98056.47;;;-4.08
73265;BMP280;61493;51.008;14.088;2023-12-04T08:12:09;98049.13;;;-4.06
73265;BMP280;61493;51.008;14.088;2023-12-04T08:14:34;98046.47;;;-3.78
73265;BMP280;61493;51.008;14.088;2023-12-04T08:17:00;98045.84;;;-3.59
73265;BMP280;61493;51.008;14.088;2023-12-04T08:19:25;98042.41;;;-3.63
73265;BMP280;61493;51.008;14.088;2023-12-04T08:21:50;98035.06;;;-3.45
73265;BMP280;61493;51.008;14.088;2023-12-04T08:24:15;98049.06;;;-3.30
73265;BMP280;61493;51.008;14.088;2023-12-04T08:26:44;98049.78;;;-3.65
73265;BMP280;61493;51.008;14.088;2023-12-04T08:29:10;98033.41;;;-3.37
73265;BMP280;61493;51.008;14.088;2023-12-04T08:31:36;98038.56;;;-3.53
73265;BMP280;61493;51.008;14.088;2023-12-04T08:34:01;98058.38;;;-3.45
73265;BMP280;61493;51.008;14.088;2023-12-04T08:36:26;98042.06;;;-3.29
73265;BMP280;61493;51.008;14.088;2023-12-04T08:38:52;98041.34;;;-3.62
73265;BMP280;61493;51.008;14.088;2023-12-04T08:41:17;98046.94;;;-3.76
73265;BMP280;61493;51.008;14.088;2023-12-04T08:43:42;98038.63;;;-3.18
73265;BMP280;61493;51.008;14.088;2023-12-04T08:46:12;98056.53;;;-3.60
73265;BMP280;61493;51.008;14.088;2023-12-04T08:48:37;98044.28;;;-2.77
73265;BMP280;61493;51.008;14.088;2023-12-04T08:51:02;98087.00;;;-2.35
73265;BMP280;61493;51.008;14.088;2023-12-04T08:53:28;98035.63;;;-2.46
73265;BMP280;61493;51.008;14.088;2023-12-04T08:55:53;98039.66;;;-2.48
73265;BMP280;61493;51.008;14.088;2023-12-04T08:58:18;98032.16;;;-3.08
73265;BMP280;61493;51.008;14.088;2023-12-04T09:00:44;98036.63;;;-3.40
73265;BMP280;61493;51.008;14.088;2023-12-04T09:03:09;98039.41;;;-3.65
73265;BMP280;61493;51.008;14.088;2023-12-04T09:05:37;98055.06;;;-3.45
73265;BMP280;61493;51.008;14.088;2023-12-04T09:08:03;98024.44;;;-3.87
73265;BMP280;61493;51.008;14.088;2023-12-04T09:11:14;98027.63;;;-3.78
73265;BMP280;61493;51.008;14.088;2023-12-04T09:18:00;98003.88;;;-4.12
73265;BMP280;61493;51.008;14.088;2023-12-04T09:20:53;98006.25;;;-3.75
73265;BMP280;61493;51.008;14.088;2023-12-04T09:40:42;97992.47;;;-3.95
73265;BMP280;61493;51.008;14.088;2023-12-04T09:43:21;97989.03;;;-3.83
73265;BMP280;61493;51.008;14.088;2023-12-04T09:46:30;97985.59;;;-3.56
73265;BMP280;61493;51.008;14.088;2023-12-04T09:55:08;97972.28;;;-3.38
73265;BMP280;61493;51.008;14.088;2023-12-04T09:57:44;97978.69;;;-2.97
73265;BMP280;61493;51.008;14.088;2023-12-04T10:00:53;97975.72;;;-2.37
73265;BMP280;61493;51.008;14.088;2023-12-04T10:06:27;97995.59;;;-2.02
73265;BMP280;61493;51.008;14.088;2023-12-04T10:09:16;97954.94;;;-2.60
73265;BMP280;61493;51.008;14.088;2023-12-04T10:26:27;97939.72;;;-1.92
73265;BMP280;61493;51.008;14.088;2023-12-04T10:30:01;97919.81;;;-2.11
73265;BMP280;61493;51.008;14.088;2023-12-04T10:32:26;97920.00;;;-2.43
73265;BMP280;61493;51.008;14.088;2023-12-04T10:34:54;97904.34;;;-2.50
73265;BMP280;61493;51.008;14.088;2023-12-04T10:37:20;97915.66;;;-2.62
73265;BMP280;61493;51.008;14.088;2023-12-04T10:39:50;97909.16;;;-2.49
73265;BMP280;61493;51.008;14.088;2023-12-04T10:42:29;97899.22;;;-2.89
73265;BMP280;61493;51.008;14.088;2023-12-04T10:44:56;97891.97;;;-2.99
73265;BMP280;61493;51.008;14.088;2023-12-04T10:47:22;97875.75;;;-2.73
73265;BMP280;61493;51.008;14.088;2023-12-04T10:49:51;97892.97;;;-2.84
73265;BMP280;61493;51.008;14.088;2023-12-04T10:52:17;97881.25;;;-2.98
73265;BMP280;61493;51.008;14.088;2023-12-04T10:54:47;97872.31;;;-3.00
73265;BMP280;61493;51.008;14.088;2023-12-04T10:57:21;97884.59;;;-2.97
73265;BMP280;61493;51.008;14.088;2023-12-04T10:59:46;97875.53;;;-2.88
73265;BMP280;61493;51.008;14.088;2023-12-04T11:02:18;97910.53;;;-2.78
73265;BMP280;61493;51.008;14.088;2023-12-04T11:04:50;97897.16;;;-3.19
73265;BMP280;61493;51.008;14.088;2023-12-04T11:07:18;97873.56;;;-3.14
73265;BMP280;61493;51.008;14.088;2023-12-04T11:09:45;97871.09;;;-3.26
73265;BMP280;61493;51.008;14.088;2023-12-04T11:12:14;97874.16;;;-3.01
73265;BMP280;61493;51.008;14.088;2023-12-04T11:14:46;97856.50;;;-2.95
73265;BMP280;61493;51.008;14.088;2023-12-04T11:17:16;97854.91;;;-2.80
73265;BMP280;61493;51.008;14.088;2023-12-04T11:22:14;97845.47;;;-2.92
73265;BMP280;61493;51.008;14.088;2023-12-04T11:24:39;97857.84;;;-2.82
73265;BMP280;61493;51.008;14.088;2023-12-04T11:27:05;97862.13;;;-2.70
73265;BMP280;61493;51.008;14.088;2023-12-04T11:29:31;97851.22;;;-2.33
73265;BMP280;61493;51.008;14.088;2023-12-04T11:31:57;97848.25;;;-2.58
73265;BMP280;61493;51.008;14.088;2023-12-04T11:34:24;97878.09;;;-2.22
73265;BMP280;61493;51.008;14.088;2023-12-04T11:36:50;97835.00;;;-2.27
73265;BMP280;61493;51.008;14.088;2023-12-04T11:39:15;97822.22;;;-2.39
73265;BMP280;61493;51.008;14.088;2023-12-04T11:41:41;97821.28;;;-2.27
73265;BMP280;61493;51.008;14.088;2023-12-04T11:44:12;97840.38;;;-2.39
73265;BMP280;61493;51.008;14.088;2023-12-04T11:46:58;97820.94;;;-2.26
73265;BMP280;61493;51.008;14.088;2023-12-04T11:49:28;97798.75;;;-2.46
73265;BMP280;61493;51.008;14.088;2023-12-04T11:51:55;97788.47;;;-2.66
73265;BMP280;61493;51.008;14.088;2023-12-04T11:54:22;97795.16;;;-2.64
73265;BMP280;61493;51.008;14.088;2023-12-04T11:56:58;97787.94;;;-2.75
73265;BMP280;61493;51.008;14.088;2023-12-04T11:59:24;97781.00;;;-2.90
73265;BMP280;61493;51.008;14.088;2023-12-04T12:01:50;97773.94;;;-2.93
73265;BMP280;61493;51.008;14.088;2023-12-04T12:04:17;97763.38;;;-2.81
73265;BMP280;61493;51.008;14.088;2023-12-04T12:06:44;97752.50;;;-2.90
73265;BMP280;61493;51.008;14.088;2023-12-04T12:09:09;97782.81;;;-2.94
73265;BMP280;61493;51.008;14.088;2023-12-04T12:11:34;97750.22;;;-2.95
73265;BMP280;61493;51.008;14.088;2023-12-04T12:13:59;97740.69;;;-2.88
73265;BMP280;61493;51.008;14.088;2023-12-04T12:19:01;97729.47;;;-2.95
73265;BMP280;61493;51.008;14.088;2023-12-04T12:21:27;97719.19;;;-2.88
73265;BMP280;61493;51.008;14.088;2023-12-04T12:23:54;97726.44;;;-2.74
73265;BMP280;61493;51.008;14.088;2023-12-04T12:26:19;97729.59;;;-2.84
73265;BMP280;61493;51.008;14.088;2023-12-04T12:28:45;97719.69;;;-2.79
73265;BMP280;61493;51.008;14.088;2023-12-04T12:31:10;97712.56;;;-2.85
73265;BMP280;61493;51.008;14.088;2023-12-04T12:33:36;97717.91;;;-2.75
73265;BMP280;61493;51.008;14.088;2023-12-04T12:36:01;97732.66;;;-2.79
73265;BMP280;61493;51.008;14.088;2023-12-04T12:38:29;97720.59;;;-2.94
73265;BMP280;61493;51.008;14.088;2023-12-04T12:40:55;97701.44;;;-2.86
73265;BMP280;61493;51.008;14.088;2023-12-04T12:43:20;97703.00;;;-2.81
73265;BMP280;61493;51.008;14.088;2023-12-04T12:45:48;97705.94;;;-2.83
73265;BMP280;61493;51.008;14.088;2023-12-04T12:48:14;97704.44;;;-2.84
73265;BMP280;61493;51.008;14.088;2023-12-04T12:50:41;97711.56;;;-2.77
73265;BMP280;61493;51.008;14.088;2023-12-04T12:53:07;97706.94;;;-2.91
73265;BMP280;61493;51.008;14.088;2023-12-04T12:55:33;97689.88;;;-2.92
73265;BMP280;61493;51.008;14.088;2023-12-04T12:57:58;97700.34;;;-2.85
73265;BMP280;61493;51.008;14.088;2023-12-04T13:00:23;97686.63;;;-2.85
73265;BMP280;61493;51.008;14.088;2023-12-04T13:02:52;97701.69;;;-2.95
73265;BMP280;61493;51.008;14.088;2023-12-04T13:05:17;97687.16;;;-2.99
73265;BMP280;61493;51.008;14.088;2023-12-04T13:07:44;97689.13;;;-2.93
73265;BMP280;61493;51.008;14.088;2023-12-04T13:10:10;97690.16;;;-2.97
73265;BMP280;61493;51.008;14.088;2023-12-04T13:12:36;97688.94;;;-3.03
73265;BMP280;61493;51.008;14.088;2023-12-04T13:15:01;97707.09;;;-3.03
73265;BMP280;61493;51.008;14.088;2023-12-04T13:17:27;97688.53;;;-3.05
73265;BMP280;61493;51.008;14.088;2023-12-04T13:19:53;97698.88;;;-3.09
73265;BMP280;61493;51.008;14.088;2023-12-04T13:22:18;97687.72;;;-3.10
73265;BMP280;61493;51.008;14.088;2023-12-04T13:24:43;97697.34;;;-3.10
73265;BMP280;61493;51.008;14.088;2023-12-04T13:27:08;97688.84;;;-3.11
73265;BMP280;61493;51.008;14.088;2023-12-04T13:29:34;97679.94;;;-3.10
73265;BMP280;61493;51.008;14.088;2023-12-04T13:31:59;97668.56;;;-3.05
73265;BMP280;61493;51.008;14.088;2023-12-04T13:34:25;97676.00;;;-3.03
73265;BMP280;61493;51.008;14.088;2023-12-04T13:36:50;97675.59;;;-3.05
73265;BMP280;61493;51.008;14.088;2023-12-04T13:39:15;97655.19;;;-3.07
73265;BMP280;61493;51.008;14.088;2023-12-04T13:42:12;97660.44;;;-3.03
73265;BMP280;61493;51.008;14.088;2023-12-04T13:44:56;97654.16;;;-3.02
73265;BMP280;61493;51.008;14.088;2023-12-04T13:47:21;97637.41;;;-3.08
73265;BMP280;61493;51.008;14.088;2023-12-04T13:49:46;97632.63;;;-3.06
73265;BMP280;61493;51.008;14.088;2023-12-04T13:52:12;97638.16;;;-3.08
73265;BMP280;61493;51.008;14.088;2023-12-04T13:54:37;97635.09;;;-3.14
73265;BMP280;61493;51.008;14.088;2023-12-04T13:57:12;97626.59;;;-3.14
73265;BMP280;61493;51.008;14.088;2023-12-04T13:59:47;97630.25;;;-3.15
73265;BMP280;61493;51.008;14.088;2023-12-04T14:02:12;97614.31;;;-3.17
73265;BMP280;61493;51.008;14.088;2023-12-04T14:04:39;97605.41;;;-3.20
73265;BMP280;61493;51.008;14.088;2023-12-04T14:07:04;97613.88;;;-3.23
73265;BMP280;61493;51.008;14.088;2023-12-04T14:09:30;97604.59;;;-3.24
73265;BMP280;61493;51.008;14.088;2023-12-04T14:11:57;97601.31;;;-3.21
73265;BMP280;61493;51.008;14.088;2023-12-04T14:14:22;97600.22;;;-3.20
73265;BMP280;61493;51.008;14.088;2023-12-04T14:16:48;97587.19;;;-3.23
73265;BMP280;61493;51.008;14.088;2023-12-04T14:19:14;97599.47;;;-3.20
73265;BMP280;61493;51.008;14.088;2023-12-04T14:21:42;97589.31;;;-3.29
73265;BMP280;61493;51.008;14.088;2023-12-04T14:24:07;97588.97;;;-3.27
73265;BMP280;61493;51.008;14.088;2023-12-04T14:26:32;97581.91;;;-3.31
73265;BMP280;61493;51.008;14.088;2023-12-04T14:28:57;97588.94;;;-3.31
73265;BMP280;61493;51.008;14.088;2023-12-04T14:31:26;97595.59;;;-3.30
73265;BMP280;61493;51.008;14.088;2023-12-04T14:33:51;97582.25;;;-3.32
73265;BMP280;61493;51.008;14.088;2023-12-04T14:36:18;97589.69;;;-3.31
73265;BMP280;61493;51.008;14.088;2023-12-04T14:38:43;97583.69;;;-3.35
73265;BMP280;61493;51.008;14.088;2023-12-04T14:41:08;97578.94;;;-3.29
73265;BMP280;61493;51.008;14.088;2023-12-04T14:43:35;97588.94;;;-3.31
73265;BMP280;61493;51.008;14.088;2023-12-04T14:46:00;97583.03;;;-3.28
73265;BMP280;61493;51.008;14.088;2023-12-04T14:48:26;97568.53;;;-3.33